Terminal Aerodrome Forecast
Issued by NWS Buffalo, NY

Home | Current Version | Previous Version | Text Only | Print | Product List | Glossary On
Versions: 1 2 3 4 5 6 7 8 9 10 11 12 13 14 15 16 17 18 19 20 21 22 23 24 25 26 27 28 29 30 31
000
FTUS41 KBUF 300339 AAA
TAFBUF
TAF AMD
KBUF 300339Z 3004/3024 14005KT P6SM BKN100
     FM300600 11006KT 6SM -SHRA VCTS OVC050CB
     FM301200 12009KT P6SM VCSH OVC030
     FM301700 20008KT P6SM VCSH OVC025
     FM301900 23008KT 6SM -SHRA VCTS OVC025CB
     FM302300 21007KT P6SM VCSH BKN035=

USA.gov is the U.S. government's official web portal to all federal, state and local government web resources and services.